Laust Maersk — OVZV2 — position and weather

sailwx.info

Track history (hours):
 
Tides and Currents Weather Stations Pressure Air Temp Water Temp Dewpoint Dewpoint Depression Visibility Wind Speed Wind Dir Waves Ship Positions

Laust Maersk

Last reported at 2018-Aug-14 13:27 UTC. Time now 2018-Aug-14 13:47 UTC.
Position N 01°17' E 103°46'.

Length 265.8 m; beam 37.3 m; draft 14 m.

Type: Ship (hazmat cat A). MMSI: 219968000.

Date/timePositionNaut miles runAvg speedWind from/ knotsBaromVisibWave heightAir tempDewpointWater temp
2018-Aug-14 13:27N 01°17' E 103°46'0 0.0
2018-Aug-14 13:00N 01°17' E 103°46'0 0.0
2018-Aug-14 12:30N 01°17' E 103°46'0 0.0
2018-Aug-14 12:00N 01°17' E 103°46'0 0.0
2018-Aug-14 11:30N 01°17' E 103°46'0 0.0
2018-Aug-14 10:58N 01°17' E 103°46'0 0.0
2018-Aug-14 10:30N 01°17' E 103°46'0 0.0
2018-Aug-14 10:00N 01°17' E 103°46'0 0.0
2018-Aug-14 09:27N 01°17' E 103°46'0 0.0
2018-Aug-14 09:00N 01°17' E 103°46'0 0.0
2018-Aug-14 08:28N 01°17' E 103°46'0 0.0
2018-Aug-14 07:57N 01°17' E 103°46'0 0.3
2018-Aug-14 07:30N 01°17' E 103°46'1 2.1
2018-Aug-14 07:00N 01°17' E 103°45'2 4.6
2018-Aug-14 06:31N 01°15' E 103°44'510.6
2018-Aug-14 05:59N 01°12' E 103°39'3 6.7
2018-Aug-14 05:30N 01°12' E 103°36'3 5.2
2018-Aug-14 05:00N 01°13' E 103°33'3 5.6
2018-Aug-14 04:30N 01°14' E 103°31'0 0.5
2018-Aug-14 04:01N 01°14' E 103°31'0 0.4
2018-Aug-14 03:30N 01°14' E 103°31'1 1.0
2018-Aug-14 03:00N 01°14' E 103°31'3 5.4
2018-Aug-14 02:31N 01°16' E 103°33'5 9.1
2018-Aug-14 01:57N 01°21' E 103°33'0 0.4
2018-Aug-14 01:30N 01°21' E 103°33'0 0.0
2018-Aug-14 00:56N 01°21' E 103°33'0 0.0
2018-Aug-14 00:20N 01°21' E 103°33'0 0.0
2018-Aug-13 23:36N 01°21' E 103°33'0 0.0
2018-Aug-13 23:23N 01°21' E 103°33'0 0.0
2018-Aug-13 22:45N 01°21' E 103°33'0 0.0
2018-Aug-13 22:30N 01°21' E 103°33'0 0.0
2018-Aug-13 21:59N 01°21' E 103°33'0 0.0
2018-Aug-13 21:30N 01°21' E 103°33'0 0.0
2018-Aug-13 20:54N 01°21' E 103°33'0 0.0
2018-Aug-13 20:30N 01°21' E 103°33'0 0.0
2018-Aug-13 19:51N 01°21' E 103°33'0 0.0
2018-Aug-13 19:21N 01°21' E 103°33'0 0.0
2018-Aug-13 17:51N 01°21' E 103°33'0 0.0
2018-Aug-13 17:12N 01°21' E 103°33'0 0.0
2018-Aug-13 16:51N 01°21' E 103°33'0 0.0
2018-Aug-13 16:24N 01°21' E 103°33'0 0.0
2018-Aug-13 15:42N 01°21' E 103°33'0 0.0
2018-Aug-13 14:48N 01°21' E 103°33'0 0.0
2018-Aug-13 14:18N 01°21' E 103°33'0 0.0
2018-Aug-13 13:14N 01°21' E 103°33'0 0.0
2018-Aug-13 12:39N 01°21' E 103°33'0 0.0
2018-Aug-13 12:26N 01°21' E 103°33'0 0.0
2018-Aug-13 11:57N 01°21' E 103°33'0 0.0
2018-Aug-13 11:27N 01°21' E 103°33'0 0.0
2018-Aug-13 10:57N 01°21' E 103°33'0 0.0
2018-Aug-13 10:12N 01°21' E 103°33'0 0.0
2018-Aug-13 09:51N 01°21' E 103°33'0 0.0
2018-Aug-13 09:30N 01°21' E 103°33'0 0.0
2018-Aug-13 08:26N 01°21' E 103°33'0 0.0
2018-Aug-13 07:59N 01°21' E 103°33'0 0.0
2018-Aug-13 07:14N 01°21' E 103°33'0 0.0
2018-Aug-13 06:53N 01°21' E 103°33'0 0.0
2018-Aug-13 04:26N 01°21' E 103°33'0 0.0
2018-Aug-13 03:54N 01°21' E 103°33'0 0.0
2018-Aug-13 01:17N 01°21' E 103°33'0 0.0
2018-Aug-13 00:50N 01°21' E 103°33'0 0.0
2018-Aug-13 00:30N 01°21' E 103°33'0 0.0
2018-Aug-12 23:09N 01°21' E 103°33'0 0.1
2018-Aug-12 22:59N 01°21' E 103°33'3 5.5
2018-Aug-12 22:31N 01°19' E 103°33'510.0
2018-Aug-12 21:59N 01°14' E 103°32'3 6.1
2018-Aug-12 21:30N 01°12' E 103°35'510.3
2018-Aug-12 21:00N 01°11' E 103°40'510.0
2018-Aug-12 20:30N 01°08' E 103°44'5 9.9
2018-Aug-12 20:00N 01°11' E 103°48'5 9.8
2018-Aug-12 19:30N 01°13' E 103°53'510.0
2018-Aug-12 19:00N 01°15' E 103°57'510.3
2018-Aug-12 18:29N 01°16' E 104°03'510.0
2018-Aug-12 17:59N 01°17' E 104°08'611.0
2018-Aug-12 17:28N 01°18' E 104°13'5 9.7
2018-Aug-12 16:58N 01°18' E 104°18'510.2
2018-Aug-12 16:30N 01°21' E 104°22'611.6
2018-Aug-12 15:59N 01°24' E 104°27'1013.0
2018-Aug-12 15:15N 01°31' E 104°34'513.6
2018-Aug-12 14:53N 01°35' E 104°37'  
2018-Aug-09 03:00S 05°24' E 124°24'60722.5 120 / 51010.610.8 30.525.630.0
2018-Aug-08 00:00N 01°24' E 131°54'   130 / 121010.510.8 30.025.830.5
Track history (hours):
 
Tides and Currents Weather Stations Pressure Air Temp Water Temp Dewpoint Dewpoint Depression Visibility Wind Speed Wind Dir Waves Ship Positions

Laust Maersk

Last reported at 2018-Aug-14 13:27 UTC. Time now 2018-Aug-14 13:47 UTC.
Position N 01°17' E 103°46'.

Length 265.8 m; beam 37.3 m; draft 14 m.

Type: Ship (hazmat cat A). MMSI: 219968000.

Date/timePositionNaut miles runAvg speedWind from/ knotsBaromVisibWave heightAir tempDewpointWater temp
2018-Aug-14 13:27N 01°17' E 103°46'0 0.0
2018-Aug-14 13:00N 01°17' E 103°46'0 0.0
2018-Aug-14 12:30N 01°17' E 103°46'0 0.0
2018-Aug-14 12:00N 01°17' E 103°46'0 0.0
2018-Aug-14 11:30N 01°17' E 103°46'0 0.0
2018-Aug-14 10:58N 01°17' E 103°46'0 0.0
2018-Aug-14 10:30N 01°17' E 103°46'0 0.0
2018-Aug-14 10:00N 01°17' E 103°46'0 0.0
2018-Aug-14 09:27N 01°17' E 103°46'0 0.0
2018-Aug-14 09:00N 01°17' E 103°46'0 0.0
2018-Aug-14 08:28N 01°17' E 103°46'0 0.0
2018-Aug-14 07:57N 01°17' E 103°46'0 0.3
2018-Aug-14 07:30N 01°17' E 103°46'1 2.1
2018-Aug-14 07:00N 01°17' E 103°45'2 4.6
2018-Aug-14 06:31N 01°15' E 103°44'510.6
2018-Aug-14 05:59N 01°12' E 103°39'3 6.7
2018-Aug-14 05:30N 01°12' E 103°36'3 5.2
2018-Aug-14 05:00N 01°13' E 103°33'3 5.6
2018-Aug-14 04:30N 01°14' E 103°31'0 0.5
2018-Aug-14 04:01N 01°14' E 103°31'0 0.4
2018-Aug-14 03:30N 01°14' E 103°31'1 1.0
2018-Aug-14 03:00N 01°14' E 103°31'3 5.4
2018-Aug-14 02:31N 01°16' E 103°33'5 9.1
2018-Aug-14 01:57N 01°21' E 103°33'0 0.4
2018-Aug-14 01:30N 01°21' E 103°33'0 0.0
2018-Aug-14 00:56N 01°21' E 103°33'0 0.0
2018-Aug-14 00:20N 01°21' E 103°33'0 0.0
2018-Aug-13 23:36N 01°21' E 103°33'0 0.0
2018-Aug-13 23:23N 01°21' E 103°33'0 0.0
2018-Aug-13 22:45N 01°21' E 103°33'0 0.0
2018-Aug-13 22:30N 01°21' E 103°33'0 0.0
2018-Aug-13 21:59N 01°21' E 103°33'0 0.0
2018-Aug-13 21:30N 01°21' E 103°33'0 0.0
2018-Aug-13 20:54N 01°21' E 103°33'0 0.0
2018-Aug-13 20:30N 01°21' E 103°33'0 0.0
2018-Aug-13 19:51N 01°21' E 103°33'0 0.0
2018-Aug-13 19:21N 01°21' E 103°33'0 0.0
2018-Aug-13 17:51N 01°21' E 103°33'0 0.0
2018-Aug-13 17:12N 01°21' E 103°33'0 0.0
2018-Aug-13 16:51N 01°21' E 103°33'0 0.0
2018-Aug-13 16:24N 01°21' E 103°33'0 0.0
2018-Aug-13 15:42N 01°21' E 103°33'0 0.0
2018-Aug-13 14:48N 01°21' E 103°33'0 0.0
2018-Aug-13 14:18N 01°21' E 103°33'0 0.0
2018-Aug-13 13:14N 01°21' E 103°33'0 0.0
2018-Aug-13 12:39N 01°21' E 103°33'0 0.0
2018-Aug-13 12:26N 01°21' E 103°33'0 0.0
2018-Aug-13 11:57N 01°21' E 103°33'0 0.0
2018-Aug-13 11:27N 01°21' E 103°33'0 0.0
2018-Aug-13 10:57N 01°21' E 103°33'0 0.0
2018-Aug-13 10:12N 01°21' E 103°33'0 0.0
2018-Aug-13 09:51N 01°21' E 103°33'0 0.0
2018-Aug-13 09:30N 01°21' E 103°33'0 0.0
2018-Aug-13 08:26N 01°21' E 103°33'0 0.0
2018-Aug-13 07:59N 01°21' E 103°33'0 0.0
2018-Aug-13 07:14N 01°21' E 103°33'0 0.0
2018-Aug-13 06:53N 01°21' E 103°33'0 0.0
2018-Aug-13 04:26N 01°21' E 103°33'0 0.0
2018-Aug-13 03:54N 01°21' E 103°33'0 0.0
2018-Aug-13 01:17N 01°21' E 103°33'0 0.0
2018-Aug-13 00:50N 01°21' E 103°33'0 0.0
2018-Aug-13 00:30N 01°21' E 103°33'0 0.0
2018-Aug-12 23:09N 01°21' E 103°33'0 0.1
2018-Aug-12 22:59N 01°21' E 103°33'3 5.5
2018-Aug-12 22:31N 01°19' E 103°33'510.0
2018-Aug-12 21:59N 01°14' E 103°32'3 6.1
2018-Aug-12 21:30N 01°12' E 103°35'510.3
2018-Aug-12 21:00N 01°11' E 103°40'510.0
2018-Aug-12 20:30N 01°08' E 103°44'5 9.9
2018-Aug-12 20:00N 01°11' E 103°48'5 9.8
2018-Aug-12 19:30N 01°13' E 103°53'510.0
2018-Aug-12 19:00N 01°15' E 103°57'510.3
2018-Aug-12 18:29N 01°16' E 104°03'510.0
2018-Aug-12 17:59N 01°17' E 104°08'611.0
2018-Aug-12 17:28N 01°18' E 104°13'5 9.7
2018-Aug-12 16:58N 01°18' E 104°18'510.2
2018-Aug-12 16:30N 01°21' E 104°22'611.6
2018-Aug-12 15:59N 01°24' E 104°27'1013.0
2018-Aug-12 15:15N 01°31' E 104°34'513.6
2018-Aug-12 14:53N 01°35' E 104°37'  
2018-Aug-09 03:00S 05°24' E 124°24'60722.5 120 / 51010.610.8 30.525.630.0
2018-Aug-08 00:00N 01°24' E 131°54'   130 / 121010.510.8 30.025.830.5

Dump ship's entire track history